createdAt,value
2019-02-06T00:03:03.529Z,80.03
2019-02-06T00:05:29.793Z,80.05
2019-02-06T00:07:56.056Z,79.90
2019-02-06T00:10:22.131Z,80.32
2019-02-06T00:12:48.371Z,80.68
2019-02-06T00:15:14.563Z,80.33
2019-02-06T00:17:40.708Z,80.18
2019-02-06T00:20:06.974Z,80.07
2019-02-06T00:22:33.235Z,80.18
2019-02-06T00:24:59.735Z,80.41
2019-02-06T00:27:26.002Z,80.47
2019-02-06T00:29:52.261Z,80.77
2019-02-06T00:32:18.516Z,80.97
2019-02-06T00:34:44.777Z,80.98
2019-02-06T00:37:11.025Z,81.14
2019-02-06T00:39:37.287Z,81.02
2019-02-06T00:42:03.566Z,80.79
2019-02-06T00:44:30.234Z,80.74
2019-02-06T00:46:56.479Z,80.68
2019-02-06T00:49:22.658Z,80.70
2019-02-06T00:51:48.610Z,80.69
2019-02-06T00:54:14.866Z,80.40
2019-02-06T00:56:40.949Z,80.14
2019-02-06T00:59:07.106Z,79.73
2019-02-06T01:01:33.361Z,79.89
2019-02-06T01:03:59.646Z,79.69
2019-02-06T01:06:26.122Z,79.71
2019-02-06T01:08:52.375Z,79.77
2019-02-06T01:11:18.634Z,79.48
2019-02-06T01:13:44.578Z,79.57
2019-02-06T01:16:10.846Z,79.40
2019-02-06T01:18:37.104Z,78.80
2019-02-06T01:21:03.369Z,78.51
2019-02-06T01:23:29.632Z,78.77
2019-02-06T01:25:55.902Z,78.72
2019-02-06T01:28:22.178Z,79.37
2019-02-06T01:30:55.803Z,79.33
2019-02-06T01:33:22.064Z,79.25
2019-02-06T01:35:49.952Z,78.98
2019-02-06T01:38:16.097Z,78.67
2019-02-06T01:40:42.399Z,77.73
2019-02-06T01:43:08.352Z,78.24
2019-02-06T01:45:34.811Z,77.95
2019-02-06T01:48:00.765Z,78.08
2019-02-06T01:50:26.802Z,77.81
2019-02-06T01:52:52.754Z,78.41
2019-02-06T01:55:18.703Z,78.25
2019-02-06T01:57:44.662Z,77.51
2019-02-06T02:00:14.513Z,78.13
2019-02-06T02:02:40.662Z,78.37
2019-02-06T02:05:06.902Z,78.49
2019-02-06T02:07:33.151Z,78.27
2019-02-06T02:09:59.213Z,78.67
2019-02-06T02:12:25.271Z,79.42
2019-02-06T02:14:51.332Z,79.88
2019-02-06T02:17:17.602Z,79.49
2019-02-06T02:19:43.657Z,80.14
2019-02-06T02:22:10.048Z,80.46
2019-02-06T02:24:36.088Z,80.42
2019-02-06T02:27:02.540Z,79.98
2019-02-06T02:29:28.708Z,80.17
2019-02-06T02:31:55.209Z,79.94
2019-02-06T02:34:21.442Z,80.23
2019-02-06T02:36:47.523Z,80.80
2019-02-06T02:39:13.565Z,81.37
2019-02-06T02:41:39.778Z,81.43
2019-02-06T02:44:06.035Z,81.29
2019-02-06T02:46:32.397Z,81.06
2019-02-06T02:48:58.490Z,81.11
2019-02-06T02:51:24.544Z,81.02
2019-02-06T02:53:50.718Z,81.19
2019-02-06T02:56:16.925Z,81.85
2019-02-06T02:58:43.029Z,82.06
2019-02-06T03:01:29.045Z,82.20
2019-02-06T03:03:59.870Z,82.12
2019-02-06T03:06:28.538Z,82.29
2019-02-06T03:08:53.909Z,81.87
2019-02-06T03:11:20.055Z,82.19
2019-02-06T03:13:46.108Z,82.18
2019-02-06T03:16:12.069Z,82.05
2019-02-06T03:18:38.038Z,81.89
2019-02-06T03:21:04.296Z,81.21
2019-02-06T03:23:30.584Z,81.00
2019-02-06T03:25:56.647Z,80.39
2019-02-06T03:28:22.613Z,80.84
2019-02-06T03:30:48.575Z,80.49
2019-02-06T03:33:14.822Z,80.25
2019-02-06T03:35:41.375Z,80.83
2019-02-06T03:38:07.530Z,81.48
2019-02-06T03:40:33.584Z,81.64
2019-02-06T03:42:59.737Z,81.20
2019-02-06T03:45:25.689Z,81.01
2019-02-06T03:47:51.628Z,80.28
2019-02-06T03:50:18.623Z,80.55
2019-02-06T03:52:44.533Z,80.97
2019-02-06T03:55:11.283Z,80.63
2019-02-06T03:57:37.317Z,80.73
2019-02-06T04:00:10.083Z,81.18
2019-02-06T04:02:36.032Z,81.29
2019-02-06T04:05:02.380Z,81.54
2019-02-06T04:07:28.731Z,81.10
2019-02-06T04:09:55.004Z,80.68
2019-02-06T04:12:21.160Z,81.03
2019-02-06T04:14:47.319Z,80.88
2019-02-06T04:17:13.604Z,80.76
2019-02-06T04:19:39.769Z,80.54
2019-02-06T04:22:06.327Z,80.63
2019-02-06T04:24:32.593Z,80.75
2019-02-06T04:26:58.834Z,80.53
2019-02-06T04:29:25.146Z,80.43
2019-02-06T04:31:51.308Z,80.35
2019-02-06T04:34:17.484Z,80.48
2019-02-06T04:36:43.688Z,80.57
2019-02-06T04:39:10.014Z,80.82
2019-02-06T04:41:36.863Z,81.05
2019-02-06T04:44:03.161Z,80.87
2019-02-06T04:46:29.467Z,81.06
2019-02-06T04:48:55.755Z,80.77
2019-02-06T04:51:22.012Z,80.97
2019-02-06T04:53:48.288Z,80.88
2019-02-06T04:56:14.559Z,80.78
2019-02-06T04:58:40.729Z,81.37
2019-02-06T05:01:06.894Z,81.33
2019-02-06T05:03:33.405Z,81.89
2019-02-06T05:05:59.606Z,81.89
2019-02-06T05:08:25.854Z,82.12
2019-02-06T05:10:52.209Z,82.83
2019-02-06T05:13:18.564Z,82.71
2019-02-06T05:15:44.520Z,82.26
2019-02-06T05:18:10.722Z,82.40
2019-02-06T05:20:37.391Z,82.35
2019-02-06T05:23:05.074Z,82.28
2019-02-06T05:25:31.168Z,82.60
2019-02-06T05:27:57.424Z,83.10
2019-02-06T05:30:23.379Z,83.49
2019-02-06T05:32:49.539Z,83.99
2019-02-06T05:35:15.637Z,84.07
2019-02-06T05:37:41.908Z,84.29
2019-02-06T05:40:10.813Z,83.99
2019-02-06T05:42:36.878Z,83.75
2019-02-06T05:45:24.938Z,83.96
2019-02-06T05:47:51.004Z,84.51
2019-02-06T05:50:17.558Z,84.35
2019-02-06T05:52:43.518Z,84.34
2019-02-06T05:55:10.156Z,84.30
2019-02-06T05:57:36.207Z,84.64
2019-02-06T06:00:22.234Z,84.96
2019-02-06T06:02:48.504Z,84.97
2019-02-06T06:05:14.762Z,85.08
2019-02-06T06:07:45.106Z,84.68
2019-02-06T06:10:12.352Z,84.71
2019-02-06T06:12:38.965Z,84.70
2019-02-06T06:15:07.410Z,85.00
2019-02-06T06:17:33.383Z,85.57
2019-02-06T06:19:59.622Z,85.28
2019-02-06T06:22:25.886Z,85.18
2019-02-06T06:24:52.153Z,85.36
2019-02-06T06:27:18.446Z,85.17
2019-02-06T06:29:44.707Z,84.83
2019-02-06T06:32:10.969Z,84.43
2019-02-06T06:34:37.520Z,84.51
2019-02-06T06:37:03.684Z,84.60
2019-02-06T06:39:29.940Z,84.48
2019-02-06T06:41:55.885Z,84.37
2019-02-06T06:44:22.157Z,84.45
2019-02-06T06:46:48.315Z,84.59
2019-02-06T06:49:14.600Z,85.02
2019-02-06T06:51:40.659Z,85.35
2019-02-06T06:54:06.917Z,85.21
2019-02-06T06:56:33.270Z,84.85
2019-02-06T06:58:59.525Z,84.68
2019-02-06T07:01:25.594Z,84.48
2019-02-06T07:03:51.754Z,84.57
2019-02-06T07:06:18.091Z,84.17
2019-02-06T07:08:44.351Z,84.03
2019-02-06T07:11:10.301Z,83.97
2019-02-06T07:13:37.196Z,83.68
2019-02-06T07:16:03.643Z,82.98
2019-02-06T07:18:29.591Z,82.86
2019-02-06T07:20:55.639Z,82.66
2019-02-06T07:23:21.915Z,82.29
2019-02-06T07:25:47.964Z,82.95
2019-02-06T07:28:14.046Z,82.85
2019-02-06T07:30:40.306Z,82.44
2019-02-06T07:33:06.419Z,82.07
2019-02-06T07:35:32.694Z,81.42
2019-02-06T07:37:59.155Z,81.19
2019-02-06T07:40:25.124Z,80.93
2019-02-06T07:42:51.191Z,81.55
2019-02-06T07:45:18.760Z,81.18
2019-02-06T07:47:45.036Z,81.58
2019-02-06T07:50:35.565Z,81.42
2019-02-06T07:53:01.854Z,81.05
2019-02-06T07:55:28.134Z,80.80
2019-02-06T07:57:54.399Z,80.31
2019-02-06T08:00:20.457Z,80.04
2019-02-06T08:02:46.614Z,79.68
2019-02-06T08:05:15.996Z,78.93
2019-02-06T08:07:42.167Z,78.48
2019-02-06T08:10:12.547Z,78.63
2019-02-06T08:12:38.706Z,78.23
2019-02-06T08:15:13.843Z,77.61
2019-02-06T08:17:39.902Z,78.09
2019-02-06T08:20:09.281Z,77.53
2019-02-06T08:22:35.539Z,77.26
2019-02-06T08:25:01.486Z,77.64
2019-02-06T08:27:27.952Z,77.54
2019-02-06T08:29:53.915Z,78.42
2019-02-06T08:32:19.885Z,77.98
2019-02-06T08:34:45.852Z,78.18
2019-02-06T08:37:11.823Z,77.86
2019-02-06T08:39:37.762Z,76.92
2019-02-06T08:42:04.014Z,77.48
2019-02-06T08:44:30.017Z,78.05
2019-02-06T08:46:56.495Z,77.83
2019-02-06T08:49:22.860Z,77.66
2019-02-06T08:51:48.820Z,77.47
2019-02-06T08:54:14.833Z,77.57
2019-02-06T08:56:40.910Z,77.06
2019-02-06T08:59:07.166Z,76.12
2019-02-06T09:01:33.344Z,76.83
2019-02-06T09:03:59.412Z,76.96
2019-02-06T09:06:25.589Z,77.57
2019-02-06T09:08:59.272Z,76.90
2019-02-06T09:11:20.234Z,76.36
2019-02-06T09:13:46.489Z,75.78
2019-02-06T09:16:12.980Z,75.87
2019-02-06T09:18:39.262Z,76.28
2019-02-06T09:21:05.526Z,76.99
2019-02-06T09:23:31.776Z,76.94
2019-02-06T09:25:58.041Z,77.28
2019-02-06T09:28:24.693Z,77.20
2019-02-06T09:30:50.871Z,77.57
2019-02-06T09:33:17.135Z,76.96
2019-02-06T09:35:43.097Z,77.53
2019-02-06T09:38:09.277Z,77.19
2019-02-06T09:40:35.449Z,77.56
2019-02-06T09:43:01.625Z,77.56
2019-02-06T09:45:27.697Z,77.77
2019-02-06T09:47:53.850Z,77.85
2019-02-06T09:50:23.533Z,78.52
2019-02-06T09:52:49.809Z,78.49
2019-02-06T09:55:15.873Z,77.48
2019-02-06T09:57:42.054Z,78.66
2019-02-06T10:00:14.969Z,78.55
2019-02-06T10:02:41.232Z,80.11
2019-02-06T10:05:09.298Z,79.37
2019-02-06T10:07:35.868Z,79.80
2019-02-06T10:10:02.139Z,79.34
2019-02-06T10:12:28.351Z,80.72
2019-02-06T10:14:54.629Z,79.55
2019-02-06T10:17:20.911Z,79.65
2019-02-06T10:19:47.218Z,79.44
2019-02-06T10:22:13.469Z,78.78
2019-02-06T10:24:39.762Z,80.02
2019-02-06T10:27:06.028Z,78.85
2019-02-06T10:29:32.514Z,78.69
2019-02-06T10:31:58.775Z,79.79
2019-02-06T10:34:24.951Z,77.67
2019-02-06T10:36:51.219Z,77.69
2019-02-06T10:39:17.391Z,78.12
2019-02-06T10:41:43.684Z,78.83
2019-02-06T10:44:10.003Z,78.51
2019-02-06T10:46:36.267Z,77.40
2019-02-06T10:49:02.871Z,78.21
2019-02-06T10:51:29.151Z,77.63
2019-02-06T10:53:55.343Z,78.10
2019-02-06T10:56:21.603Z,77.55
2019-02-06T10:58:47.765Z,79.15
2019-02-06T11:01:13.938Z,79.39
2019-02-06T11:03:40.223Z,78.40
2019-02-06T11:06:06.490Z,78.71
2019-02-06T11:08:32.760Z,79.11
2019-02-06T11:10:59.118Z,79.07
2019-02-06T11:13:25.282Z,78.59
2019-02-06T11:15:51.556Z,79.23
2019-02-06T11:18:17.742Z,79.94
2019-02-06T11:20:53.137Z,79.70
2019-02-06T11:23:19.408Z,78.43
2019-02-06T11:25:45.595Z,79.75
2019-02-06T11:28:12.147Z,79.73
2019-02-06T11:30:38.397Z,78.77
2019-02-06T11:33:04.998Z,78.34
2019-02-06T11:35:31.266Z,77.07
2019-02-06T11:37:57.555Z,77.16
2019-02-06T11:40:24.100Z,78.83
2019-02-06T11:42:50.585Z,78.68
2019-02-06T11:45:25.923Z,78.99
2019-02-06T11:47:52.202Z,77.34
2019-02-06T11:50:21.785Z,77.89
2019-02-06T11:52:48.462Z,77.98
2019-02-06T11:55:16.931Z,79.80
2019-02-06T11:57:43.210Z,78.73
2019-02-06T12:00:14.477Z,78.31
2019-02-06T12:02:41.040Z,78.16
2019-02-06T12:05:08.383Z,77.55
2019-02-06T12:07:34.486Z,78.78
2019-02-06T12:10:09.461Z,78.25
2019-02-06T12:12:28.834Z,78.45
2019-02-06T12:14:55.227Z,79.00
2019-02-06T12:17:21.201Z,79.32
2019-02-06T12:19:47.377Z,78.80
2019-02-06T12:22:13.426Z,79.40
2019-02-06T12:24:39.604Z,79.24
2019-02-06T12:27:05.881Z,78.93
2019-02-06T12:29:32.037Z,76.94
2019-02-06T12:31:58.301Z,77.61
2019-02-06T12:34:24.469Z,77.87
2019-02-06T12:36:50.734Z,78.87
2019-02-06T12:39:16.999Z,77.12
2019-02-06T12:41:43.260Z,77.81
2019-02-06T12:44:09.573Z,79.28
2019-02-06T12:46:35.834Z,80.21
2019-02-06T12:49:02.690Z,80.72
2019-02-06T12:51:28.763Z,80.79
2019-02-06T12:53:55.031Z,80.13
2019-02-06T12:56:21.288Z,81.27
2019-02-06T12:58:47.464Z,81.10
2019-02-06T13:01:13.723Z,81.46
2019-02-06T13:03:39.999Z,81.52
2019-02-06T13:06:06.242Z,81.13
2019-02-06T13:08:32.402Z,80.56
2019-02-06T13:10:58.882Z,81.08
2019-02-06T13:13:25.172Z,81.38
2019-02-06T13:15:51.247Z,81.34
2019-02-06T13:18:17.508Z,81.44
2019-02-06T13:20:43.672Z,80.63
2019-02-06T13:23:09.927Z,80.80
2019-02-06T13:25:36.206Z,80.62
2019-02-06T13:28:02.769Z,81.36
2019-02-06T13:30:37.123Z,80.25
2019-02-06T13:33:04.988Z,80.57
2019-02-06T13:35:31.168Z,80.76
2019-02-06T13:37:57.435Z,81.02
2019-02-06T13:40:27.554Z,80.91
2019-02-06T13:42:53.905Z,81.11
2019-02-06T13:45:22.480Z,80.72
2019-02-06T13:47:48.759Z,81.75
2019-02-06T13:50:21.922Z,82.10
2019-02-06T13:52:44.724Z,81.62
2019-02-06T13:55:14.484Z,81.96
2019-02-06T13:57:40.103Z,81.64
2019-02-06T14:00:12.589Z,82.06
2019-02-06T14:02:38.968Z,81.92
2019-02-06T14:05:05.126Z,82.12
2019-02-06T14:07:31.290Z,81.48
2019-02-06T14:09:57.558Z,81.53
2019-02-06T14:12:23.854Z,80.82
2019-02-06T14:14:50.026Z,79.88
2019-02-06T14:17:18.273Z,81.10
2019-02-06T14:19:44.476Z,81.85
2019-02-06T14:22:11.036Z,81.37
2019-02-06T14:24:40.916Z,81.35
2019-02-06T14:27:10.822Z,81.68
2019-02-06T14:30:09.584Z,81.99
2019-02-06T14:32:59.235Z,82.14
2019-02-06T14:35:34.895Z,82.07
2019-02-06T14:38:30.777Z,81.13
2019-02-06T14:41:08.520Z,82.03
2019-02-06T14:44:01.235Z,82.25
2019-02-06T14:47:01.179Z,81.90
2019-02-06T14:49:39.956Z,79.96
2019-02-06T14:52:25.151Z,80.25
2019-02-06T14:55:26.381Z,80.27
2019-02-06T14:58:26.407Z,80.04
2019-02-06T15:01:17.139Z,74.93
2019-02-06T15:03:59.014Z,76.75
2019-02-06T15:06:45.415Z,78.03
2019-02-06T15:09:45.755Z,78.61
2019-02-06T15:12:18.464Z,77.88
2019-02-06T15:14:48.340Z,76.12
2019-02-06T15:17:36.905Z,75.98
2019-02-06T15:20:23.360Z,78.76
2019-02-06T15:23:11.571Z,80.22
2019-02-06T15:26:17.918Z,80.23
2019-02-06T15:28:50.752Z,78.66
2019-02-06T15:31:37.528Z,79.82
2019-02-06T15:34:25.976Z,79.97
2019-02-06T15:37:25.993Z,82.00
2019-02-06T15:40:14.239Z,82.64
2019-02-06T15:43:00.626Z,80.40
2019-02-06T15:45:39.400Z,79.67
2019-02-06T15:48:11.873Z,81.67
2019-02-06T15:51:07.565Z,81.39
2019-02-06T15:53:43.223Z,80.85
2019-02-06T15:56:22.332Z,80.39
2019-02-06T15:58:58.410Z,82.03
2019-02-06T16:01:34.191Z,80.35
2019-02-06T16:04:21.320Z,78.71
2019-02-06T16:07:21.374Z,77.31
2019-02-06T16:10:00.549Z,78.87
2019-02-06T16:12:35.702Z,77.11
2019-02-06T16:15:08.491Z,78.57
2019-02-06T16:17:50.442Z,79.76
2019-02-06T16:20:23.583Z,80.92
2019-02-06T16:23:26.690Z,79.69
2019-02-06T16:26:13.362Z,80.69
2019-02-06T16:29:07.224Z,80.74
2019-02-06T16:31:37.141Z,81.68
2019-02-06T16:34:07.310Z,80.88
2019-02-06T16:36:52.455Z,81.84
2019-02-06T16:39:31.203Z,79.89
2019-02-06T16:42:09.919Z,81.30
2019-02-06T16:44:45.857Z,80.83
2019-02-06T16:47:30.747Z,81.96
2019-02-06T16:50:03.953Z,81.05
2019-02-06T16:52:54.350Z,81.26
2019-02-06T16:55:26.956Z,80.94
2019-02-06T16:58:02.911Z,80.96
2019-02-06T17:00:39.022Z,81.95
2019-02-06T17:03:14.741Z,81.48
2019-02-06T17:06:00.010Z,80.57
2019-02-06T17:08:54.271Z,79.32
2019-02-06T17:12:04.092Z,80.05
2019-02-06T17:14:48.883Z,81.92
2019-02-06T17:17:35.443Z,82.60
2019-02-06T17:20:08.091Z,82.95
2019-02-06T17:22:38.126Z,80.50
2019-02-06T17:25:19.862Z,79.83
2019-02-06T17:28:06.235Z,80.33
2019-02-06T17:30:36.115Z,80.93
2019-02-06T17:33:37.890Z,81.34
2019-02-06T17:36:39.549Z,81.47
2019-02-06T17:39:23.912Z,80.55
2019-02-06T17:42:15.773Z,80.44
2019-02-06T17:45:12.641Z,81.72
2019-02-06T17:48:02.462Z,81.88
2019-02-06T17:50:35.341Z,82.38
2019-02-06T17:53:17.189Z,82.58
2019-02-06T17:55:43.491Z,81.84
2019-02-06T17:58:09.805Z,81.87
2019-02-06T18:01:02.255Z,82.59
2019-02-06T18:03:31.491Z,80.39
2019-02-06T18:05:57.654Z,80.88
2019-02-06T18:08:23.970Z,80.94
2019-02-06T18:10:50.366Z,81.16
2019-02-06T18:13:16.670Z,80.92
2019-02-06T18:15:43.028Z,80.68
2019-02-06T18:18:09.375Z,81.21
2019-02-06T18:20:35.661Z,81.65
2019-02-06T18:23:02.124Z,82.15
2019-02-06T18:25:28.443Z,81.90
2019-02-06T18:27:54.754Z,81.96
2019-02-06T18:30:23.683Z,82.21
2019-02-06T18:32:49.948Z,82.59
2019-02-06T18:35:16.127Z,82.79
2019-02-06T18:37:43.343Z,83.21
2019-02-06T18:40:12.217Z,83.34
2019-02-06T18:42:38.572Z,82.69
2019-02-06T18:45:08.978Z,82.72
2019-02-06T18:47:35.290Z,81.58
2019-02-06T18:50:02.721Z,82.39
2019-02-06T18:52:30.826Z,82.29
2019-02-06T18:54:57.171Z,83.03
2019-02-06T18:57:23.491Z,83.15
2019-02-06T18:59:49.771Z,82.96
2019-02-06T19:02:16.099Z,82.96
2019-02-06T19:04:42.799Z,83.29
2019-02-06T19:07:10.266Z,83.71
2019-02-06T19:09:36.937Z,83.44
2019-02-06T19:12:03.229Z,83.15
2019-02-06T19:14:29.529Z,83.70
2019-02-06T19:16:55.812Z,83.29
2019-02-06T19:19:25.628Z,83.17
2019-02-06T19:21:50.269Z,83.10
2019-02-06T19:24:17.825Z,82.73
2019-02-06T19:26:44.330Z,84.05
2019-02-06T19:29:10.610Z,84.05
2019-02-06T19:31:36.909Z,83.76
2019-02-06T19:34:03.395Z,83.78
2019-02-06T19:36:29.557Z,83.71
2019-02-06T19:38:55.845Z,83.92
2019-02-06T19:41:22.133Z,84.54
2019-02-06T19:43:50.226Z,84.37
2019-02-06T19:46:16.519Z,84.22
2019-02-06T19:48:42.791Z,83.71
2019-02-06T19:51:09.055Z,83.87
2019-02-06T19:53:35.322Z,83.63
2019-02-06T19:56:02.195Z,83.77
2019-02-06T19:58:28.470Z,84.37
2019-02-06T20:00:54.642Z,84.37
2019-02-06T20:03:20.909Z,84.00
2019-02-06T20:05:47.158Z,84.18
2019-02-06T20:08:14.316Z,84.93
2019-02-06T20:10:44.149Z,85.06
2019-02-06T20:13:14.149Z,84.64
2019-02-06T20:15:38.600Z,85.04
2019-02-06T20:18:04.884Z,84.64
2019-02-06T20:20:31.581Z,85.08
2019-02-06T20:22:57.896Z,84.86
2019-02-06T20:25:24.145Z,84.79
2019-02-06T20:27:51.242Z,84.83
2019-02-06T20:30:19.740Z,84.88
2019-02-06T20:32:45.906Z,85.18
2019-02-06T20:35:13.706Z,85.29
2019-02-06T20:37:39.995Z,85.02
2019-02-06T20:40:35.593Z,84.96
2019-02-06T20:43:01.765Z,84.93
2019-02-06T20:45:28.046Z,84.77
2019-02-06T20:47:54.310Z,84.99
2019-02-06T20:50:25.529Z,84.06
2019-02-06T20:52:51.805Z,84.65
2019-02-06T20:55:19.384Z,84.16
2019-02-06T20:57:45.657Z,83.68
2019-02-06T21:00:15.294Z,84.19
2019-02-06T21:02:41.579Z,84.46
2019-02-06T21:05:10.630Z,82.97
2019-02-06T21:07:38.827Z,83.12
2019-02-06T21:10:09.217Z,82.68
2019-02-06T21:12:35.778Z,83.15
2019-02-06T21:15:02.149Z,82.39
2019-02-06T21:17:28.310Z,83.55
2019-02-06T21:19:54.574Z,82.94
2019-02-06T21:22:20.750Z,83.26
2019-02-06T21:24:46.917Z,83.85
2019-02-06T21:27:13.093Z,84.02
2019-02-06T21:29:39.366Z,84.46
2019-02-06T21:32:05.552Z,84.46
2019-02-06T21:34:32.123Z,84.52
2019-02-06T21:36:59.272Z,83.98
2019-02-06T21:39:25.360Z,84.06
2019-02-06T21:41:51.637Z,84.65
2019-02-06T21:44:17.615Z,84.48
2019-02-06T21:46:43.773Z,84.44
2019-02-06T21:49:09.839Z,84.85
2019-02-06T21:51:36.128Z,84.99
2019-02-06T21:54:02.705Z,85.39
2019-02-06T21:56:28.887Z,85.38
2019-02-06T21:58:55.137Z,85.64
2019-02-06T22:01:21.321Z,85.81
2019-02-06T22:03:47.473Z,85.71
2019-02-06T22:06:13.542Z,85.45
2019-02-06T22:08:39.786Z,85.84
2019-02-06T22:11:05.847Z,85.93
2019-02-06T22:13:32.431Z,86.02
2019-02-06T22:15:58.767Z,86.16
2019-02-06T22:18:25.055Z,86.57
2019-02-06T22:20:51.318Z,86.96
2019-02-06T22:23:17.471Z,87.20
2019-02-06T22:25:43.658Z,86.77
2019-02-06T22:28:09.905Z,86.33
2019-02-06T22:30:36.166Z,86.48
2019-02-06T22:33:02.644Z,84.80
2019-02-06T22:35:28.907Z,84.48
2019-02-06T22:37:55.159Z,85.24
2019-02-06T22:40:23.939Z,85.59
2019-02-06T22:42:50.128Z,84.56
2019-02-06T22:45:19.149Z,85.09
2019-02-06T22:47:45.096Z,84.94
2019-02-06T22:50:16.767Z,84.33
2019-02-06T22:52:43.048Z,83.72
2019-02-06T22:55:10.809Z,84.35
2019-02-06T22:57:37.068Z,84.57
2019-02-06T23:00:37.541Z,84.60
2019-02-06T23:03:03.811Z,84.79
2019-02-06T23:05:29.889Z,84.91
2019-02-06T23:07:55.926Z,84.64
2019-02-06T23:10:22.091Z,84.86
2019-02-06T23:12:48.041Z,85.34
2019-02-06T23:15:14.102Z,85.34
2019-02-06T23:17:40.349Z,85.83
2019-02-06T23:20:08.579Z,85.80
2019-02-06T23:22:34.829Z,85.72
2019-02-06T23:25:00.985Z,85.60
2019-02-06T23:27:26.955Z,85.54
2019-02-06T23:29:53.009Z,84.59
2019-02-06T23:32:19.164Z,84.49
2019-02-06T23:34:45.407Z,84.75
2019-02-06T23:37:11.600Z,84.60
2019-02-06T23:39:37.941Z,85.16
2019-02-06T23:42:03.926Z,84.44
2019-02-06T23:44:30.106Z,85.14
2019-02-06T23:46:56.385Z,84.85
2019-02-06T23:49:22.632Z,84.40
2019-02-06T23:51:48.679Z,84.83
2019-02-06T23:54:14.631Z,85.01
2019-02-06T23:56:40.689Z,83.32
2019-02-06T23:59:07.162Z,83.44
